Time;durP1;ratioP1;P1;durP2;ratioP2;P2;SDS_P1;SDS_P2;PMS_P1;PMS_P2;Temp;Humidity;BMP_temperature;BMP_pressure;BME280_temperature;BME280_humidity;BME280_pressure;Samples;Min_cycle;Max_cycle;Signal;HPM_P1;HPM_P2
2024/04/05 00:01:50;;;;;;;1.83;0.57;;;;;;;2.16;100.00;100055.16;5132253;28;20043;-74
2024/04/05 00:04:16;;;;;;;0.50;0.50;;;;;;;2.37;100.00;100079.38;5114146;28;20023;-75
2024/04/05 00:06:41;;;;;;;0.80;0.60;;;;;;;2.34;100.00;100066.44;5080103;28;20078;-75
2024/04/05 00:09:07;;;;;;;2.03;0.60;;;;;;;2.35;100.00;100060.97;5114765;28;20429;-74
2024/04/05 00:11:33;;;;;;;0.90;0.75;;;;;;;2.18;100.00;100030.06;5114448;28;20546;-75
2024/04/05 00:13:58;;;;;;;0.90;0.63;;;;;;;2.32;100.00;100048.03;5114901;28;20035;-74
2024/04/05 00:16:24;;;;;;;1.33;0.60;;;;;;;2.14;100.00;100023.44;5115563;28;20019;-74
2024/04/05 00:18:50;;;;;;;1.00;0.70;;;;;;;2.41;100.00;100067.44;5113434;28;20050;-75
2024/04/05 00:21:16;;;;;;;0.98;0.43;;;;;;;2.34;100.00;100046.03;5088529;28;20035;-74
2024/04/05 00:23:42;;;;;;;0.70;0.60;;;;;;;2.43;100.00;100054.84;5130551;28;20027;-74
2024/04/05 00:26:09;;;;;;;0.50;0.40;;;;;;;2.44;100.00;100060.97;5132826;28;20036;-75
2024/04/05 00:28:36;;;;;;;1.50;0.60;;;;;;;2.46;100.00;100059.00;5100246;28;20026;-74
2024/04/05 00:31:03;;;;;;;0.80;0.70;;;;;;;2.44;100.00;100061.81;5116093;28;20054;-74
2024/04/05 00:33:29;;;;;;;0.70;0.60;;;;;;;2.45;100.00;100065.28;5116418;28;20027;-74
2024/04/05 00:35:56;;;;;;;0.93;0.55;;;;;;;2.47;100.00;100060.66;5117530;28;20091;-75
2024/04/05 00:38:23;;;;;;;0.70;0.60;;;;;;;2.47;100.00;100055.34;5133932;28;20031;-75
2024/04/05 00:40:50;;;;;;;0.75;0.60;;;;;;;2.30;100.00;100017.31;5134681;28;20122;-75
2024/04/05 00:43:15;;;;;;;1.23;0.50;;;;;;;2.51;100.00;100052.16;5116739;28;20016;-74
2024/04/05 00:45:45;;;;;;;0.77;0.55;;;;;;;2.48;100.00;100036.56;5099550;28;20039;-74
2024/04/05 00:48:11;;;;;;;0.50;0.50;;;;;;;2.19;100.00;99991.13;5116412;28;20040;-74
2024/04/05 00:50:37;;;;;;;1.00;0.70;;;;;;;2.55;100.00;100052.66;5099136;28;20126;-75
2024/04/05 00:53:04;;;;;;;1.42;0.80;;;;;;;2.23;100.00;100003.88;5134343;28;20020;-74
2024/04/05 00:55:31;;;;;;;0.85;0.65;;;;;;;2.56;100.00;100055.19;5133893;28;20038;-75
2024/04/05 00:58:03;;;;;;;1.50;0.90;;;;;;;2.57;100.00;100051.50;5116347;28;20008;-74
2024/04/05 01:00:30;;;;;;;2.30;1.10;;;;;;;2.49;100.00;100046.22;5116146;28;20024;-74
2024/04/05 01:02:56;;;;;;;1.20;1.00;;;;;;;2.52;100.00;100051.19;5133743;28;20057;-75
2024/04/05 01:05:21;;;;;;;1.98;1.30;;;;;;;2.55;100.00;100050.00;5134197;28;20027;-74
2024/04/05 01:07:52;;;;;;;2.03;1.50;;;;;;;2.63;100.00;100059.84;5112060;28;20572;-74
2024/04/05 01:10:17;;;;;;;2.38;1.52;;;;;;;2.64;100.00;100066.78;5113088;28;20020;-74
2024/04/05 01:12:42;;;;;;;1.90;1.77;;;;;;;2.62;100.00;100066.16;5095958;28;20050;-74
2024/04/05 01:15:08;;;;;;;1.38;1.27;;;;;;;2.66;100.00;100067.47;5095893;28;20031;-75
2024/04/05 01:17:35;;;;;;;2.13;1.50;;;;;;;2.67;100.00;100061.16;5113546;28;20592;-75
2024/04/05 01:20:03;;;;;;;1.52;1.38;;;;;;;2.68;100.00;100068.13;5113726;28;20020;-74
2024/04/05 01:22:30;;;;;;;1.90;1.33;;;;;;;2.65;100.00;100066.66;5113802;28;20054;-74
2024/04/05 01:24:56;;;;;;;1.67;1.58;;;;;;;2.69;100.00;100081.25;5114714;28;20024;-73
2024/04/05 01:27:21;;;;;;;1.50;1.38;;;;;;;2.42;100.00;100041.72;5119347;28;20049;-74
2024/04/05 01:29:47;;;;;;;1.92;1.10;;;;;;;2.69;100.00;100083.91;5118812;28;20008;-75
2024/04/05 01:32:12;;;;;;;1.40;1.00;;;;;;;2.69;100.00;100075.94;5117898;28;20023;-75
2024/04/05 01:34:37;;;;;;;1.50;1.08;;;;;;;2.70;100.00;100077.59;5115967;28;20020;-76
2024/04/05 01:37:03;;;;;;;1.40;1.10;;;;;;;2.51;100.00;100054.00;5115562;28;20111;-75
2024/04/05 01:39:29;;;;;;;1.20;1.10;;;;;;;2.71;100.00;100079.22;5114298;28;20008;-74
2024/04/05 01:41:54;;;;;;;1.10;1.00;;;;;;;2.72;100.00;100082.75;5099614;28;20529;-74
2024/04/05 01:44:20;;;;;;;1.65;1.10;;;;;;;2.73;100.00;100087.06;5097716;28;20048;-75
2024/04/05 01:46:45;;;;;;;1.83;1.20;;;;;;;2.75;100.00;100079.75;5114484;28;20050;-75
2024/04/05 01:49:11;;;;;;;2.80;1.30;;;;;;;2.70;100.00;100069.63;5116287;28;20016;-74
2024/04/05 01:51:38;;;;;;;2.03;1.13;;;;;;;2.53;100.00;100049.38;5117659;28;20252;-74
2024/04/05 01:54:04;;;;;;;1.40;1.30;;;;;;;2.79;100.00;100081.91;5116657;28;20066;-75
2024/04/05 01:56:29;;;;;;;1.60;1.40;;;;;;;2.79;100.00;100081.91;5116003;28;20024;-74
2024/04/05 01:58:54;;;;;;;1.48;1.33;;;;;;;2.79;100.00;100081.91;5115514;28;20056;-73
2024/04/05 02:01:20;;;;;;;1.88;1.30;;;;;;;2.63;100.00;100050.03;5081824;28;20091;-74
2024/04/05 02:03:46;;;;;;;3.95;1.70;;;;;;;2.69;100.00;100054.69;5115900;28;20012;-74
2024/04/05 02:06:14;;;;;;;1.88;1.77;;;;;;;2.86;100.00;100074.09;5099218;28;20036;-75
2024/04/05 02:08:40;;;;;;;1.60;1.50;;;;;;;2.89;100.00;100070.28;5137052;28;20070;-74
2024/04/05 02:11:05;;;;;;;2.08;1.80;;;;;;;2.63;100.00;100015.50;5119489;28;20024;-74
2024/04/05 02:13:31;;;;;;;2.10;1.90;;;;;;;2.86;100.00;100054.69;5136790;28;20103;-74
2024/04/05 02:15:56;;;;;;;3.20;2.30;;;;;;;2.99;100.00;100063.78;5084938;28;20018;-74
2024/04/05 02:18:22;;;;;;;2.92;2.17;;;;;;;3.02;100.00;100059.97;5101930;28;20015;-74
2024/04/05 02:20:56;;;;;;;3.40;2.30;;;;;;;2.92;100.00;100041.53;5118912;28;20088;-74
2024/04/05 02:23:21;;;;;;;2.47;2.15;;;;;;;3.09;100.00;100062.78;5136310;28;20008;-74
2024/04/05 02:25:47;;;;;;;2.85;2.40;;;;;;;3.12;100.00;100060.63;5118814;28;20027;-74
2024/04/05 02:28:13;;;;;;;3.83;2.22;;;;;;;3.06;100.00;100046.16;5119099;28;20062;-74
2024/04/05 02:30:39;;;;;;;5.90;2.35;;;;;;;3.21;100.00;100064.06;5101652;28;20054;-74
2024/04/05 02:33:05;;;;;;;2.75;2.20;;;;;;;3.26;100.00;100067.06;5136709;28;20023;-74
2024/04/05 02:35:31;;;;;;;3.83;2.30;;;;;;;3.28;100.00;100067.75;5116036;28;20035;-74
2024/04/05 02:37:56;;;;;;;4.95;2.33;;;;;;;3.02;100.00;100012.13;5115993;28;20028;-75
2024/04/05 02:40:22;;;;;;;3.58;2.60;;;;;;;3.35;100.00;100059.91;5107449;28;20024;-74
2024/04/05 02:42:47;;;;;;;4.68;2.55;;;;;;;3.30;100.00;100053.25;5088620;28;20031;-74
2024/04/05 02:45:13;;;;;;;4.30;2.85;;;;;;;3.40;100.00;100065.53;5116882;28;20051;-74
2024/04/05 02:47:38;;;;;;;9.68;3.13;;;;;;;3.43;100.00;100073.16;5117385;28;20083;-74
2024/04/05 02:50:04;;;;;;;4.10;2.97;;;;;;;3.44;100.00;100069.50;5118549;28;20020;-74
2024/04/05 02:52:29;;;;;;;6.10;3.40;;;;;;;3.47;100.00;100083.28;5119521;28;20034;-74
2024/04/05 02:54:56;;;;;;;6.65;3.55;;;;;;;3.27;100.00;100028.84;5118520;28;20027;-75
2024/04/05 02:57:21;;;;;;;8.40;3.40;;;;;;;3.52;100.00;100072.16;5135466;28;20011;-74
2024/04/05 02:59:47;;;;;;;8.70;3.28;;;;;;;3.20;100.00;100014.56;5100618;28;20420;-74
2024/04/05 03:02:13;;;;;;;9.35;4.55;;;;;;;3.58;100.00;100071.47;5118507;28;20031;-74
2024/04/05 03:04:38;;;;;;;7.13;3.90;;;;;;;3.62;100.00;100069.28;5136377;28;20024;-75
2024/04/05 03:07:03;;;;;;;10.75;4.60;;;;;;;3.61;100.00;100079.09;5117817;28;20052;-75
2024/04/05 03:09:30;;;;;;;11.70;4.43;;;;;;;3.56;100.00;100062.00;5117295;28;20032;-74
2024/04/05 03:11:56;;;;;;;10.30;5.10;;;;;;;3.66;100.00;100067.94;5116962;28;20033;-74
2024/04/05 03:14:24;;;;;;;12.00;6.10;;;;;;;3.68;100.00;100077.41;5116352;28;20027;-75
2024/04/05 03:16:49;;;;;;;15.95;6.07;;;;;;;3.68;100.00;100072.09;5099310;28;20019;-74
2024/04/05 03:19:15;;;;;;;14.68;5.95;;;;;;;3.76;100.00;100079.19;5099889;28;20370;-74
2024/04/05 03:21:40;;;;;;;14.85;6.15;;;;;;;3.79;100.00;100084.19;5117802;28;20034;-75
2024/04/05 03:24:06;;;;;;;15.48;6.55;;;;;;;3.84;100.00;100086.31;5083794;28;20026;-76
2024/04/05 03:26:33;;;;;;;15.95;5.85;;;;;;;3.75;100.00;100073.06;5135236;28;20064;-75
2024/04/05 03:28:58;;;;;;;19.02;6.20;;;;;;;3.67;100.00;100043.81;5099710;28;20027;-75
2024/04/05 03:31:24;;;;;;;16.88;5.65;;;;;;;3.90;100.00;100080.31;5130331;28;20079;-76
2024/04/05 03:33:50;;;;;;;20.73;5.13;;;;;;;3.86;100.00;100066.50;5091411;28;20035;-76
2024/04/05 03:36:15;;;;;;;15.35;4.90;;;;;;;4.01;100.00;100087.91;5116791;28;20023;-75
2024/04/05 03:38:41;;;;;;;20.67;4.95;;;;;;;3.93;100.00;100070.13;5135521;28;20160;-75
2024/04/05 03:41:06;;;;;;;15.30;4.53;;;;;;;4.08;100.00;100098.69;5134594;28;20047;-74
2024/04/05 03:43:32;;;;;;;14.27;4.22;;;;;;;4.10;100.00;100097.50;5100925;28;20109;-75
2024/04/05 03:45:57;;;;;;;12.18;3.20;;;;;;;4.00;100.00;100075.59;5117517;28;20392;-76
2024/04/05 03:48:22;;;;;;;15.63;4.40;;;;;;;3.98;100.00;100073.13;5117289;28;20039;-75
2024/04/05 03:50:49;;;;;;;11.32;3.22;;;;;;;4.11;100.00;100096.50;5101122;28;20050;-75
2024/04/05 03:53:15;;;;;;;12.32;3.17;;;;;;;4.18;100.00;100102.78;5099188;28;20038;-75
2024/04/05 03:55:40;;;;;;;14.52;3.03;;;;;;;4.11;100.00;100093.03;5098295;28;20020;-75
2024/04/05 03:58:06;;;;;;;15.02;3.33;;;;;;;4.21;100.00;100104.28;5134170;28;20028;-75
2024/04/05 04:00:31;;;;;;;13.38;3.20;;;;;;;3.80;100.00;100037.94;5117496;28;20039;-75
2024/04/05 04:02:57;;;;;;;12.52;2.72;;;;;;;4.24;100.00;100107.44;5117120;28;20020;-74
2024/04/05 04:05:22;;;;;;;13.55;3.70;;;;;;;4.28;100.00;100104.41;5099668;28;20024;-75
2024/04/05 04:07:47;;;;;;;14.98;3.28;;;;;;;4.30;100.00;100113.03;5134041;28;20119;-75
2024/04/05 04:10:14;;;;;;;15.05;3.47;;;;;;;4.31;100.00;100112.88;5134263;28;20054;-75
2024/04/05 04:12:39;;;;;;;18.45;3.70;;;;;;;4.24;100.00;100102.09;5133897;28;20023;-75
2024/04/05 04:15:10;;;;;;;13.20;3.20;;;;;;;4.36;100.00;100107.00;5098809;28;20045;-75
2024/04/05 04:17:36;;;;;;;13.68;3.10;;;;;;;4.38;100.00;100115.66;5115924;28;20031;-74
2024/04/05 04:20:04;;;;;;;13.00;3.20;;;;;;;4.28;100.00;100091.94;5116731;28;20049;-75
2024/04/05 04:22:30;;;;;;;12.77;2.78;;;;;;;4.43;100.00;100110.63;5116142;28;20033;-75
2024/04/05 04:24:55;;;;;;;21.85;3.20;;;;;;;4.39;100.00;100109.34;5133594;28;20051;-75
2024/04/05 04:27:21;;;;;;;13.18;2.67;;;;;;;4.45;100.00;100111.28;5099065;28;20091;-75
2024/04/05 04:29:47;;;;;;;12.10;2.50;;;;;;;4.45;100.00;100113.97;5134568;28;20027;-75
2024/04/05 04:32:15;;;;;;;9.20;2.45;;;;;;;3.69;100.00;100003.75;5116461;28;20032;-75
2024/04/05 04:34:40;;;;;;;12.07;2.38;;;;;;;4.48;100.00;100137.59;5083403;28;20087;-76
2024/04/05 04:37:07;;;;;;;12.70;2.80;;;;;;;4.50;100.00;100134.72;5082375;28;20058;-75
2024/04/05 04:39:33;;;;;;;14.65;2.65;;;;;;;4.43;100.00;100118.63;5099033;28;20091;-76
2024/04/05 04:41:58;;;;;;;18.58;3.28;;;;;;;4.52;100.00;100133.56;5133370;28;20021;-75
2024/04/05 04:44:24;;;;;;;10.73;3.05;;;;;;;4.34;100.00;100103.69;5098679;28;20023;-75
2024/04/05 04:46:49;;;;;;;16.45;3.10;;;;;;;4.51;100.00;100129.25;5099118;28;20031;-74
2024/04/05 04:49:15;;;;;;;13.45;3.45;;;;;;;4.58;100.00;100148.03;5116043;28;20037;-75
2024/04/05 04:51:41;;;;;;;22.00;4.07;;;;;;;4.44;100.00;100125.63;5099495;28;20031;-75
2024/04/05 04:54:06;;;;;;;21.85;4.63;;;;;;;4.62;100.00;100150.13;5100307;28;20020;-75
2024/04/05 04:56:32;;;;;;;21.17;4.97;;;;;;;4.56;100.00;100148.19;5132743;28;20035;-75
2024/04/05 04:58:58;;;;;;;18.88;4.40;;;;;;;4.63;100.00;100159.78;5093059;28;20091;-74
2024/04/05 05:01:23;;;;;;;17.30;4.35;;;;;;;4.64;100.00;100158.81;5136219;28;20027;-74
2024/04/05 05:03:49;;;;;;;18.80;4.63;;;;;;;4.67;100.00;100155.78;5103179;28;20061;-74
2024/04/05 05:06:14;;;;;;;15.93;3.92;;;;;;;4.43;100.00;100124.78;5119362;28;20024;-74
2024/04/05 05:08:40;;;;;;;19.33;4.28;;;;;;;4.71;100.00;100157.09;5121510;28;20052;-76
2024/04/05 05:11:05;;;;;;;12.48;3.70;;;;;;;4.77;100.00;100160.03;5121238;28;20023;-73
2024/04/05 05:13:31;;;;;;;16.17;3.75;;;;;;;4.80;100.00;100154.34;5120493;28;20042;-72
2024/04/05 05:15:57;;;;;;;16.17;3.70;;;;;;;4.84;100.00;100161.81;5138621;28;20077;-72
2024/04/05 05:18:23;;;;;;;14.48;3.95;;;;;;;4.54;100.00;100102.25;5137833;28;20088;-75
2024/04/05 05:20:49;;;;;;;15.75;4.32;;;;;;;4.80;100.00;100149.03;5119947;28;20024;-74
2024/04/05 05:23:15;;;;;;;17.63;3.90;;;;;;;4.73;100.00;100140.91;5119483;28;20032;-78
2024/04/05 05:25:45;;;;;;;16.20;3.53;;;;;;;4.90;100.00;100173.59;5119423;28;20156;-75
2024/04/05 05:28:11;;;;;;;15.48;3.20;;;;;;;4.86;100.00;100166.97;5135861;28;20027;-75
2024/04/05 05:30:37;;;;;;;12.50;2.65;;;;;;;4.94;100.00;100175.75;5118549;28;20084;-74
2024/04/05 05:33:04;;;;;;;17.40;3.45;;;;;;;4.94;100.00;100161.59;5119836;28;20008;-75
2024/04/05 05:35:30;;;;;;;18.35;3.45;;;;;;;4.90;100.00;100149.59;5137642;28;20020;-75
2024/04/05 05:37:55;;;;;;;10.27;3.25;;;;;;;5.01;100.00;100169.72;5136569;28;20020;-76
2024/04/05 05:40:21;;;;;;;11.43;2.75;;;;;;;5.04;100.00;100169.34;5137020;28;20049;-75
2024/04/05 05:42:46;;;;;;;11.75;3.20;;;;;;;4.85;100.00;100133.34;5136541;28;20031;-75
2024/04/05 05:45:13;;;;;;;12.98;3.20;;;;;;;5.09;100.00;100165.13;5135248;28;20027;-74
2024/04/05 05:47:38;;;;;;;12.70;3.22;;;;;;;5.16;100.00;100171.41;5134964;28;20016;-73
2024/04/05 05:50:04;;;;;;;15.57;3.00;;;;;;;5.22;100.00;100182.38;5099019;28;20124;-73
2024/04/05 05:52:29;;;;;;;13.07;3.17;;;;;;;5.23;100.00;100184.00;5111192;28;20034;-74
2024/04/05 05:54:55;;;;;;;12.52;3.10;;;;;;;4.81;100.00;100116.03;5100681;28;20059;-74
2024/04/05 05:57:20;;;;;;;14.23;3.10;;;;;;;5.25;100.00;100190.84;5117505;28;20091;-73
2024/04/05 05:59:46;;;;;;;9.98;2.72;;;;;;;5.27;100.00;100183.50;5117406;28;20040;-74
2024/04/05 06:02:12;;;;;;;8.43;2.88;;;;;;;5.28;100.00;100190.47;5100968;28;20027;-74
2024/04/05 06:04:37;;;;;;;11.05;2.80;;;;;;;5.21;100.00;100176.22;5119476;28;20054;-73
2024/04/05 06:07:04;;;;;;;8.68;2.45;;;;;;;5.32;100.00;100178.44;5102123;28;20076;-73
2024/04/05 06:09:30;;;;;;;16.02;2.92;;;;;;;5.33;100.00;100179.25;5086892;28;20028;-73
2024/04/05 06:11:57;;;;;;;14.68;3.38;;;;;;;5.33;100.00;100189.94;5137807;28;20049;-73
2024/04/05 06:14:23;;;;;;;11.95;2.78;;;;;;;5.21;100.00;100178.06;5137280;28;20059;-72
2024/04/05 06:16:48;;;;;;;8.90;2.50;;;;;;;5.32;100.00;100177.59;5135740;28;20003;-74
2024/04/05 06:19:14;;;;;;;9.68;2.65;;;;;;;5.45;100.00;100203.69;5118978;28;20031;-73
2024/04/05 06:21:39;;;;;;;11.63;2.60;;;;;;;5.54;100.00;100205.28;5135167;28;20023;-74
2024/04/05 06:24:05;;;;;;;8.13;2.30;;;;;;;5.62;100.00;100208.66;5135957;28;20043;-74
2024/04/05 06:26:32;;;;;;;10.30;1.83;;;;;;;5.53;100.00;100183.09;5118120;28;20031;-73
2024/04/05 06:28:57;;;;;;;8.65;1.98;;;;;;;5.60;100.00;100188.53;5117094;28;20027;-74
2024/04/05 06:31:23;;;;;;;9.00;1.80;;;;;;;5.84;100.00;100206.13;5136909;28;20031;-73
2024/04/05 06:33:48;;;;;;;6.07;2.10;;;;;;;5.91;100.00;100216.91;5102601;28;20003;-73
2024/04/05 06:36:14;;;;;;;7.30;1.70;;;;;;;5.89;100.00;100217.94;5119816;28;20041;-74
2024/04/05 06:38:40;;;;;;;7.55;1.52;;;;;;;5.87;100.00;100222.63;5119541;28;20058;-73
2024/04/05 06:41:05;;;;;;;8.10;1.80;;;;;;;5.80;100.00;100210.19;5103134;28;20035;-73
2024/04/05 06:43:31;;;;;;;10.88;1.70;;;;;;;5.87;100.00;100229.81;5117567;28;20026;-73
2024/04/05 06:46:07;;;;;;;8.88;1.58;;;;;;;5.77;100.00;100223.91;5116699;28;20027;-73
2024/04/05 06:48:33;;;;;;;5.72;0.98;;;;;;;5.67;100.00;100234.00;5114928;28;20027;-73
2024/04/05 06:50:58;;;;;;;7.82;1.50;;;;;;;5.68;100.00;100241.00;5108396;28;20059;-73
2024/04/05 06:53:25;;;;;;;3.97;0.90;;;;;;;5.55;100.00;100242.44;5104959;28;20055;-73
2024/04/05 06:55:51;;;;;;;4.30;0.90;;;;;;;5.42;100.00;100236.88;5133542;28;20007;-73
2024/04/05 06:58:17;;;;;;;7.35;0.88;;;;;;;5.51;100.00;100248.31;5114504;28;20020;-73
2024/04/05 07:00:43;;;;;;;5.68;0.93;;;;;;;5.48;100.00;100254.03;5113851;28;20031;-73
2024/04/05 07:03:09;;;;;;;6.20;1.02;;;;;;;5.38;100.00;100243.59;5082063;28;20023;-73
2024/04/05 07:05:35;;;;;;;7.57;1.00;;;;;;;5.59;100.00;100254.41;5114964;28;20026;-73
2024/04/05 07:08:01;;;;;;;7.18;1.20;;;;;;;5.45;100.00;100209.84;5112742;28;20052;-73
2024/04/05 07:10:28;;;;;;;6.53;1.15;;;;;;;5.78;100.00;100260.25;5113145;28;20019;-73
2024/04/05 07:12:54;;;;;;;8.02;1.67;;;;;;;5.83;100.00;100271.25;5112321;28;20046;-73
2024/04/05 07:15:20;;;;;;;4.20;0.90;;;;;;;5.80;100.00;100271.59;5129798;28;20047;-72
2024/04/05 07:17:54;;;;;;;7.38;1.00;;;;;;;5.81;100.00;100281.25;5129617;28;20054;-72
2024/04/05 07:20:19;;;;;;;7.97;1.20;;;;;;;5.82;100.00;100280.25;5129043;28;20113;-73
2024/04/05 07:22:46;;;;;;;6.15;1.23;;;;;;;5.80;100.00;100288.44;5129918;28;20100;-72
2024/04/05 07:25:11;;;;;;;7.03;1.10;;;;;;;5.81;100.00;100289.25;5127507;28;20023;-73
2024/04/05 07:27:37;;;;;;;8.05;1.25;;;;;;;5.75;100.00;100284.66;5090305;28;20030;-73
2024/04/05 07:30:04;;;;;;;6.47;1.00;;;;;;;5.75;100.00;100288.13;5090132;28;20272;-73
2024/04/05 07:32:29;;;;;;;7.38;1.20;;;;;;;5.76;100.00;100296.97;5124190;28;20052;-72
2024/04/05 07:34:55;;;;;;;9.98;1.42;;;;;;;5.76;100.00;100296.97;5121036;28;20485;-73
2024/04/05 07:37:20;;;;;;;9.20;1.50;;;;;;;5.79;100.00;100291.28;5120108;28;20028;-72
2024/04/05 07:39:47;;;;;;;10.73;1.58;;;;;;;5.85;100.00;100298.56;5085966;28;20032;-74
2024/04/05 07:42:12;;;;;;;6.63;1.40;;;;;;;5.93;100.00;100290.53;5096072;28;20035;-72
2024/04/05 07:44:38;;;;;;;9.40;1.20;;;;;;;5.92;100.00;100299.50;5118241;28;20031;-72
2024/04/05 07:47:03;;;;;;;9.27;1.30;;;;;;;5.98;100.00;100288.13;5099660;28;20031;-73
2024/04/05 07:49:29;;;;;;;4.43;1.25;;;;;;;5.92;100.00;100270.13;5116946;28;20034;-72
2024/04/05 07:51:54;;;;;;;6.55;1.67;;;;;;;6.11;100.00;100293.66;5081308;28;20071;-72
2024/04/05 07:54:20;;;;;;;9.48;1.45;;;;;;;6.20;100.00;100294.44;5115124;28;20016;-73
2024/04/05 07:56:46;;;;;;;10.27;1.70;;;;;;;6.25;100.00;100294.69;5114565;28;20397;-72
2024/04/05 07:59:12;;;;;;;7.45;1.10;;;;;;;6.32;100.00;100302.81;5096149;28;20023;-73
2024/04/05 08:01:37;;;;;;;9.25;1.63;;;;;;;6.37;100.00;100305.78;5079101;28;20398;-72
2024/04/05 08:04:02;;;;;;;9.10;1.60;;;;;;;6.22;100.00;100268.34;5077415;28;20555;-73
2024/04/05 08:06:28;;;;;;;17.27;2.03;;;;;;;6.46;100.00;100310.00;5094444;28;20446;-72
2024/04/05 08:08:53;;;;;;;12.90;1.70;;;;;;;6.51;100.00;100309.44;5095786;28;20035;-72
2024/04/05 08:11:18;;;;;;;11.75;1.55;;;;;;;6.35;100.00;100275.72;5113773;28;20487;-72
2024/04/05 08:13:44;;;;;;;12.68;2.00;;;;;;;6.57;100.00;100304.19;5061157;28;20024;-73
2024/04/05 08:16:09;;;;;;;11.23;1.70;;;;;;;6.55;100.00;100303.53;5112877;28;20036;-72
2024/04/05 08:18:35;;;;;;;12.10;1.80;;;;;;;6.60;100.00;100303.00;5094759;28;20070;-72
2024/04/05 08:21:04;;;;;;;14.15;2.20;;;;;;;6.62;100.00;100303.63;5094430;28;20509;-73
2024/04/05 08:23:30;;;;;;;17.13;1.90;;;;;;;6.73;100.00;100305.03;5077025;28;20032;-72
2024/04/05 08:25:55;;;;;;;12.55;2.05;;;;;;;6.86;100.00;100304.34;5077904;28;20118;-73
2024/04/05 08:28:21;;;;;;;13.88;1.63;;;;;;;7.02;100.00;100317.53;5077403;28;20036;-72
2024/04/05 08:30:50;;;;;;;16.63;1.52;;;;;;;6.99;100.00;100296.50;5094614;28;20038;-73
2024/04/05 08:33:16;;;;;;;11.65;1.42;;;;;;;7.20;100.00;100311.75;5093841;28;20028;-72
2024/04/05 08:35:53;;;;;;;13.13;1.83;;;;;;;7.38;100.00;100317.47;5079246;28;20028;-73
2024/04/05 08:38:18;;;;;;;11.18;1.75;;;;;;;7.28;100.00;100320.50;5098406;28;20370;-72
2024/04/05 08:40:44;;;;;;;11.32;1.38;;;;;;;7.28;100.00;100323.16;5098807;28;20038;-73
2024/04/05 08:43:10;;;;;;;13.88;1.80;;;;;;;7.28;100.00;100319.63;5098171;28;20024;-72
2024/04/05 08:45:36;;;;;;;14.50;2.08;;;;;;;7.14;100.00;100317.84;5116958;28;20370;-72
2024/04/05 08:48:05;;;;;;;10.15;1.50;;;;;;;6.47;100.00;100239.50;5098347;28;20032;-72
2024/04/05 08:50:33;;;;;;;6.75;1.42;;;;;;;6.97;100.00;100344.81;5116969;28;20037;-72
2024/04/05 08:52:58;;;;;;;10.18;1.70;;;;;;;6.66;100.00;100293.41;5116881;28;20046;-73
2024/04/05 08:55:25;;;;;;;8.98;1.60;;;;;;;6.78;100.00;100313.28;5081423;28;20049;-73
2024/04/05 08:57:51;;;;;;;9.85;1.60;;;;;;;6.72;100.00;100322.06;5097681;28;20466;-73
2024/04/05 09:00:22;;;;;;;6.25;1.50;;;;;;;6.79;100.00;100358.59;5116054;28;20028;-72
2024/04/05 09:02:51;;;;;;;7.88;1.30;;;;;;;6.70;100.00;100350.84;5081706;28;20436;-72
2024/04/05 09:05:17;;;;;;;6.20;0.90;;;;;;;6.81;100.00;100379.78;5097792;28;20100;-72
2024/04/05 09:07:43;;;;;;;6.72;1.00;;;;;;;6.67;100.00;100359.22;5115573;28;20498;-72
2024/04/05 09:10:16;;;;;;;8.77;1.10;;;;;;;6.51;100.00;100368.25;5115725;28;20027;-72
2024/04/05 09:12:53;;;;;;;4.57;0.80;;;;;;;6.51;100.00;100382.44;5115838;28;20024;-72
2024/04/05 09:15:19;;;;;;;4.57;0.85;;;;;;;6.66;100.00;100397.69;5097552;28;20036;-72
2024/04/05 09:17:46;;;;;;;5.10;0.90;;;;;;;6.58;100.00;100383.38;5097431;28;20518;-72
2024/04/05 09:20:19;;;;;;;7.57;1.20;;;;;;;6.47;100.00;100373.13;5097416;28;20031;-73
2024/04/05 09:22:45;;;;;;;5.82;1.00;;;;;;;6.54;100.00;100400.78;5096925;28;20034;-72
2024/04/05 09:25:10;;;;;;;3.20;0.90;;;;;;;6.38;100.00;100406.28;5097115;28;20024;-73
2024/04/05 09:27:36;;;;;;;10.18;1.55;;;;;;;6.16;100.00;100393.78;5114866;28;20482;-72
2024/04/05 09:30:05;;;;;;;5.60;1.40;;;;;;;5.92;100.00;100371.59;5079862;28;20039;-72
2024/04/05 09:32:31;;;;;;;8.20;1.33;;;;;;;6.27;100.00;100412.91;5096321;28;20114;-72
2024/04/05 09:34:57;;;;;;;7.75;1.98;;;;;;;6.24;100.00;100409.78;5114784;28;20111;-72
2024/04/05 09:37:26;;;;;;;5.97;1.08;;;;;;;6.16;100.00;100415.16;5079536;28;20486;-72
2024/04/05 09:39:55;;;;;;;6.10;1.40;;;;;;;6.21;100.00;100418.16;5096153;28;20520;-72
2024/04/05 09:42:22;;;;;;;7.00;1.50;;;;;;;6.19;100.00;100422.81;5096111;28;20028;-72
2024/04/05 09:44:56;;;;;;;5.57;1.30;;;;;;;6.14;100.00;100422.56;5114570;28;20035;-73
2024/04/05 09:47:22;;;;;;;4.83;1.37;;;;;;;6.24;100.00;100417.78;5096648;28;20436;-73
2024/04/05 09:49:49;;;;;;;10.00;1.50;;;;;;;6.19;100.00;100428.16;5079257;28;20070;-73
2024/04/05 09:52:20;;;;;;;8.48;1.65;;;;;;;6.29;100.00;100434.09;5079222;28;20122;-72
2024/04/05 09:54:49;;;;;;;6.05;1.38;;;;;;;6.26;100.00;100429.13;5114238;28;20043;-72
2024/04/05 09:57:16;;;;;;;4.82;1.40;;;;;;;6.26;100.00;100431.81;5114138;28;20050;-73
2024/04/05 09:59:46;;;;;;;7.00;1.55;;;;;;;6.14;100.00;100423.38;5095748;28;20110;-72
2024/04/05 10:02:13;;;;;;;6.10;1.25;;;;;;;6.13;100.00;100427.06;5095787;28;20358;-72
2024/04/05 10:04:38;;;;;;;6.55;1.35;;;;;;;6.07;100.00;100433.94;5095661;28;20398;-73
2024/04/05 10:07:07;;;;;;;4.70;0.73;;;;;;;6.08;100.00;100430.25;5078856;28;20105;-72
2024/04/05 10:09:34;;;;;;;4.50;0.80;;;;;;;6.14;100.00;100450.09;5113969;28;20020;-72
2024/04/05 10:12:21;;;;;;;3.63;0.70;;;;;;;6.03;100.00;100443.34;5095873;28;20028;-72
2024/04/05 10:14:54;;;;;;;4.63;0.73;;;;;;;6.04;100.00;100447.66;5114369;28;20019;-72
2024/04/05 10:17:27;;;;;;;3.47;0.82;;;;;;;6.13;100.00;100436.94;5114064;28;20557;-72
2024/04/05 10:20:10;;;;;;;2.53;0.60;;;;;;;6.08;100.00;100440.13;5095665;28;20030;-73
2024/04/05 10:22:35;;;;;;;1.48;0.50;;;;;;;6.14;100.00;100450.09;5095618;28;20047;-72
2024/04/05 10:25:02;;;;;;;4.00;0.75;;;;;;;6.05;100.00;100449.31;5113727;28;20081;-72
2024/04/05 10:27:28;;;;;;;3.97;0.73;;;;;;;5.95;100.00;100430.03;5113572;28;20617;-72
2024/04/05 10:30:02;;;;;;;2.15;0.70;;;;;;;6.10;100.00;100438.94;5095869;28;20545;-72
2024/04/05 10:32:28;;;;;;;5.13;0.80;;;;;;;5.91;100.00;100418.00;5078529;28;20511;-72
2024/04/05 10:35:07;;;;;;;5.00;0.80;;;;;;;5.95;100.00;100435.38;5095416;28;20012;-72
2024/04/05 10:37:34;;;;;;;3.80;0.70;;;;;;;5.84;100.00;100439.25;5113391;28;20497;-72
2024/04/05 10:40:12;;;;;;;5.30;0.85;;;;;;;5.90;100.00;100440.41;5095191;28;20328;-72
2024/04/05 10:42:38;;;;;;;3.33;0.60;;;;;;;5.93;100.00;100444.56;5113405;28;20484;-72
2024/04/05 10:45:05;;;;;;;2.83;0.70;;;;;;;5.83;100.00;100452.78;5078116;28;20118;-72
2024/04/05 10:47:35;;;;;;;2.47;0.70;;;;;;;5.83;100.00;100456.28;5095079;28;20024;-72
2024/04/05 10:50:08;;;;;;;3.03;0.70;;;;;;;5.29;100.00;100375.38;5113291;28;20486;-72
2024/04/05 10:52:36;;;;;;;2.67;0.50;;;;;;;5.72;100.00;100455.84;5113151;28;20106;-72
2024/04/05 10:55:15;;;;;;;3.63;0.60;;;;;;;5.78;100.00;100469.31;5095444;28;20034;-72
2024/04/05 10:57:40;;;;;;;2.88;0.40;;;;;;;5.77;100.00;100475.69;5112095;28;20486;-72
2024/04/05 11:00:11;;;;;;;3.65;0.60;;;;;;;5.53;100.00;100457.97;5077629;28;20068;-72
2024/04/05 11:02:40;;;;;;;8.10;0.85;;;;;;;5.56;100.00;100456.75;5094447;28;20023;-73
2024/04/05 11:05:09;;;;;;;3.90;0.70;;;;;;;5.52;100.00;100453.63;5094482;28;20441;-73
2024/04/05 11:07:34;;;;;;;4.28;0.60;;;;;;;5.72;100.00;100490.56;5094214;28;20073;-72
2024/04/05 11:10:00;;;;;;;2.58;0.60;;;;;;;5.77;100.00;100482.88;5094427;28;20106;-72
2024/04/05 11:12:25;;;;;;;3.65;0.60;;;;;;;5.69;100.00;100472.22;5112585;28;20104;-72
2024/04/05 11:15:02;;;;;;;5.03;0.68;;;;;;;5.64;100.00;100468.25;5077612;28;20039;-72
2024/04/05 11:17:27;;;;;;;2.33;0.68;;;;;;;5.77;100.00;100482.88;5094496;28;20030;-73
2024/04/05 11:19:53;;;;;;;3.63;0.60;;;;;;;5.81;100.00;100489.50;5060220;28;20036;-72